Terminal Aerodrome Forecast
Issued by NWS Charleston, WV

Home | Current Version | Previous Version | Text Only | Print | Product List | Glossary On
Versions: 1 2 3 4 5 6 7 8 9 10 11 12 13 14 15 16 17 18 19 20 21 22 23 24 25 26
000
FTUS41 KRLX 020500 RRA
TAFPKB
TAF
KPKB 020549Z 0206/0306 00000KT P6SM BKN100
     FM020900 00000KT 5SM BR BKN060
      TEMPO 0210/0212 2SM BR
     FM021300 00000KT P6SM BKN060
     FM021700 03004KT P6SM BKN060 PROB30 0218/0221 3SM TSRA
      BKN060CB=

USA.gov is the U.S. government's official web portal to all federal, state and local government web resources and services.